VYMD/MDL METAR and TAF weather

Enter ICAO airport designator
Station Type Date Time Source
VYMD METAR 2023/01/30 10:30 UTC NOAA

VYMD 301030Z 32003KT 7000 FEW025 31/17 Q1010 NOSIG


Station Type Date Time Source
VYMD Decoded METAR 2023/01/30 10:30 UTC NOAA

Station name not available
Jan 30, 2023 - 05:30 AM EST / 2023.01.30 1030 UTC
Wind: from the NW (320 degrees) at 3 MPH (3 KT):0
Visibility: 4 mile(s):0
Sky conditions: mostly clear
Temperature: 87 F (31 C)
Dew Point: 62 F (17 C)
Relative Humidity: 43%
Pressure (altimeter): 29.83 in. Hg (1010 hPa)
ob: VYMD 301030Z 32003KT 7000 FEW025 31/17 Q1010 NOSIG
cycle: 10

Station Type Date Time Source
VYMD TAF 2023/01/30 06:00 UTC NOAA

TAF VYMD 300500Z 3006/3106 36002KT 7000 SCT025
TEMPO 3006/3012 36003KT 6000 HZ SCT020 SCT120

Example: see airport list